sensor_id;sensor_type;location;lat;lon;timestamp;P1;durP1;ratioP1;P2;durP2;ratioP2
79076;SDS011;68477;42.698;23.342;2023-12-28T00:02:01;46.92;;;23.75;;
79076;SDS011;68477;42.698;23.342;2023-12-28T00:04:27;47.75;;;23.52;;
79076;SDS011;68477;42.698;23.342;2023-12-28T00:06:53;53.13;;;25.48;;
79076;SDS011;68477;42.698;23.342;2023-12-28T00:09:19;54.58;;;24.40;;
79076;SDS011;68477;42.698;23.342;2023-12-28T00:11:44;49.30;;;23.83;;
79076;SDS011;68477;42.698;23.342;2023-12-28T00:14:10;59.17;;;29.20;;
79076;SDS011;68477;42.698;23.342;2023-12-28T00:16:35;51.65;;;25.60;;
79076;SDS011;68477;42.698;23.342;2023-12-28T00:19:03;50.08;;;24.70;;
79076;SDS011;68477;42.698;23.342;2023-12-28T00:21:29;47.28;;;25.33;;
79076;SDS011;68477;42.698;23.342;2023-12-28T00:23:55;49.42;;;23.08;;
79076;SDS011;68477;42.698;23.342;2023-12-28T00:26:21;49.25;;;23.83;;
79076;SDS011;68477;42.698;23.342;2023-12-28T00:28:47;46.88;;;25.45;;
79076;SDS011;68477;42.698;23.342;2023-12-28T00:31:13;51.60;;;25.08;;
79076;SDS011;68477;42.698;23.342;2023-12-28T00:33:38;50.15;;;25.83;;
79076;SDS011;68477;42.698;23.342;2023-12-28T00:36:04;55.42;;;27.52;;
79076;SDS011;68477;42.698;23.342;2023-12-28T00:38:30;49.33;;;24.67;;
79076;SDS011;68477;42.698;23.342;2023-12-28T00:40:55;54.80;;;26.73;;
79076;SDS011;68477;42.698;23.342;2023-12-28T00:43:22;47.70;;;24.20;;
79076;SDS011;68477;42.698;23.342;2023-12-28T00:45:48;46.25;;;24.92;;
79076;SDS011;68477;42.698;23.342;2023-12-28T00:48:13;46.97;;;22.83;;
79076;SDS011;68477;42.698;23.342;2023-12-28T00:50:39;48.47;;;24.63;;
79076;SDS011;68477;42.698;23.342;2023-12-28T00:53:04;54.85;;;25.30;;
79076;SDS011;68477;42.698;23.342;2023-12-28T00:55:30;41.28;;;22.55;;
79076;SDS011;68477;42.698;23.342;2023-12-28T00:57:55;44.38;;;23.67;;
79076;SDS011;68477;42.698;23.342;2023-12-28T01:00:21;42.42;;;23.00;;
79076;SDS011;68477;42.698;23.342;2023-12-28T01:02:47;44.38;;;22.45;;
79076;SDS011;68477;42.698;23.342;2023-12-28T01:05:13;45.58;;;22.25;;
79076;SDS011;68477;42.698;23.342;2023-12-28T01:07:39;47.70;;;22.70;;
79076;SDS011;68477;42.698;23.342;2023-12-28T01:10:05;36.58;;;19.67;;
79076;SDS011;68477;42.698;23.342;2023-12-28T01:12:31;37.22;;;20.33;;
79076;SDS011;68477;42.698;23.342;2023-12-28T01:14:56;42.85;;;21.05;;
79076;SDS011;68477;42.698;23.342;2023-12-28T01:17:22;46.03;;;22.75;;
79076;SDS011;68477;42.698;23.342;2023-12-28T01:19:47;50.30;;;23.58;;
79076;SDS011;68477;42.698;23.342;2023-12-28T01:22:13;48.65;;;24.15;;
79076;SDS011;68477;42.698;23.342;2023-12-28T01:24:38;46.42;;;23.15;;
79076;SDS011;68477;42.698;23.342;2023-12-28T01:27:04;41.70;;;24.00;;
79076;SDS011;68477;42.698;23.342;2023-12-28T01:29:30;45.30;;;22.83;;
79076;SDS011;68477;42.698;23.342;2023-12-28T01:31:55;51.75;;;24.00;;
79076;SDS011;68477;42.698;23.342;2023-12-28T01:34:21;47.83;;;26.38;;
79076;SDS011;68477;42.698;23.342;2023-12-28T01:36:47;47.75;;;27.08;;
79076;SDS011;68477;42.698;23.342;2023-12-28T01:39:12;48.63;;;27.40;;
79076;SDS011;68477;42.698;23.342;2023-12-28T01:41:40;46.92;;;23.52;;
79076;SDS011;68477;42.698;23.342;2023-12-28T01:44:05;48.85;;;26.92;;
79076;SDS011;68477;42.698;23.342;2023-12-28T01:46:32;49.10;;;24.35;;
79076;SDS011;68477;42.698;23.342;2023-12-28T01:48:59;48.47;;;24.48;;
79076;SDS011;68477;42.698;23.342;2023-12-28T01:51:26;51.75;;;26.10;;
79076;SDS011;68477;42.698;23.342;2023-12-28T01:53:52;55.22;;;28.33;;
79076;SDS011;68477;42.698;23.342;2023-12-28T01:56:19;57.47;;;27.10;;
79076;SDS011;68477;42.698;23.342;2023-12-28T01:58:46;58.10;;;26.80;;
79076;SDS011;68477;42.698;23.342;2023-12-28T02:01:14;58.20;;;28.60;;
79076;SDS011;68477;42.698;23.342;2023-12-28T02:03:41;54.33;;;28.60;;
79076;SDS011;68477;42.698;23.342;2023-12-28T02:06:07;58.58;;;29.52;;
79076;SDS011;68477;42.698;23.342;2023-12-28T02:08:33;53.05;;;27.20;;
79076;SDS011;68477;42.698;23.342;2023-12-28T02:10:58;57.33;;;28.73;;
79076;SDS011;68477;42.698;23.342;2023-12-28T02:13:24;54.10;;;28.13;;
79076;SDS011;68477;42.698;23.342;2023-12-28T02:16:02;62.45;;;29.80;;
79076;SDS011;68477;42.698;23.342;2023-12-28T02:18:38;54.50;;;28.20;;
79076;SDS011;68477;42.698;23.342;2023-12-28T02:21:08;57.22;;;29.85;;
79076;SDS011;68477;42.698;23.342;2023-12-28T02:23:34;55.75;;;29.75;;
79076;SDS011;68477;42.698;23.342;2023-12-28T02:26:00;57.97;;;28.10;;
79076;SDS011;68477;42.698;23.342;2023-12-28T02:28:26;52.75;;;28.70;;
79076;SDS011;68477;42.698;23.342;2023-12-28T02:30:51;67.90;;;29.90;;
79076;SDS011;68477;42.698;23.342;2023-12-28T02:35:53;62.70;;;30.23;;
79076;SDS011;68477;42.698;23.342;2023-12-28T02:38:23;63.75;;;31.20;;
79076;SDS011;68477;42.698;23.342;2023-12-28T02:40:50;56.75;;;26.23;;
79076;SDS011;68477;42.698;23.342;2023-12-28T02:43:16;57.45;;;27.83;;
79076;SDS011;68477;42.698;23.342;2023-12-28T02:45:42;51.53;;;26.08;;
79076;SDS011;68477;42.698;23.342;2023-12-28T02:48:07;49.33;;;26.08;;
79076;SDS011;68477;42.698;23.342;2023-12-28T02:50:33;52.70;;;23.45;;
79076;SDS011;68477;42.698;23.342;2023-12-28T02:52:59;49.95;;;24.92;;
79076;SDS011;68477;42.698;23.342;2023-12-28T02:55:25;44.17;;;22.80;;
79076;SDS011;68477;42.698;23.342;2023-12-28T02:57:52;44.58;;;24.05;;
79076;SDS011;68477;42.698;23.342;2023-12-28T03:00:20;45.55;;;21.95;;
79076;SDS011;68477;42.698;23.342;2023-12-28T03:02:46;44.40;;;24.08;;
79076;SDS011;68477;42.698;23.342;2023-12-28T03:05:12;44.35;;;21.60;;
79076;SDS011;68477;42.698;23.342;2023-12-28T03:07:38;42.00;;;22.90;;
79076;SDS011;68477;42.698;23.342;2023-12-28T03:10:05;44.53;;;23.15;;
79076;SDS011;68477;42.698;23.342;2023-12-28T03:12:31;40.08;;;23.35;;
79076;SDS011;68477;42.698;23.342;2023-12-28T03:14:57;39.45;;;22.08;;
79076;SDS011;68477;42.698;23.342;2023-12-28T03:17:22;42.08;;;21.80;;
79076;SDS011;68477;42.698;23.342;2023-12-28T03:19:48;46.80;;;25.08;;
79076;SDS011;68477;42.698;23.342;2023-12-28T03:22:13;50.78;;;23.75;;
79076;SDS011;68477;42.698;23.342;2023-12-28T03:24:39;48.58;;;26.27;;
79076;SDS011;68477;42.698;23.342;2023-12-28T03:27:05;63.50;;;25.48;;
79076;SDS011;68477;42.698;23.342;2023-12-28T03:29:31;53.53;;;25.17;;
79076;SDS011;68477;42.698;23.342;2023-12-28T03:31:56;47.17;;;25.05;;
79076;SDS011;68477;42.698;23.342;2023-12-28T03:34:22;46.88;;;23.50;;
79076;SDS011;68477;42.698;23.342;2023-12-28T03:36:48;38.80;;;22.33;;
79076;SDS011;68477;42.698;23.342;2023-12-28T03:39:14;43.95;;;21.23;;
79076;SDS011;68477;42.698;23.342;2023-12-28T03:41:40;37.72;;;19.20;;
79076;SDS011;68477;42.698;23.342;2023-12-28T03:44:05;40.65;;;21.33;;
79076;SDS011;68477;42.698;23.342;2023-12-28T03:46:31;38.63;;;21.35;;
79076;SDS011;68477;42.698;23.342;2023-12-28T03:48:56;45.17;;;21.75;;
79076;SDS011;68477;42.698;23.342;2023-12-28T03:51:22;42.28;;;20.27;;
79076;SDS011;68477;42.698;23.342;2023-12-28T03:53:47;43.35;;;19.73;;
79076;SDS011;68477;42.698;23.342;2023-12-28T03:56:22;43.17;;;22.02;;
79076;SDS011;68477;42.698;23.342;2023-12-28T03:58:49;39.17;;;21.02;;
79076;SDS011;68477;42.698;23.342;2023-12-28T04:01:19;43.83;;;20.10;;
79076;SDS011;68477;42.698;23.342;2023-12-28T04:03:46;45.63;;;21.92;;
79076;SDS011;68477;42.698;23.342;2023-12-28T04:06:11;40.65;;;21.35;;
79076;SDS011;68477;42.698;23.342;2023-12-28T04:08:38;39.45;;;21.23;;
79076;SDS011;68477;42.698;23.342;2023-12-28T04:11:07;42.28;;;19.80;;
79076;SDS011;68477;42.698;23.342;2023-12-28T04:13:32;50.03;;;21.13;;
79076;SDS011;68477;42.698;23.342;2023-12-28T04:15:58;41.28;;;20.15;;
79076;SDS011;68477;42.698;23.342;2023-12-28T04:18:24;39.10;;;20.23;;
79076;SDS011;68477;42.698;23.342;2023-12-28T04:20:49;36.95;;;21.58;;
79076;SDS011;68477;42.698;23.342;2023-12-28T04:23:15;38.10;;;18.63;;
79076;SDS011;68477;42.698;23.342;2023-12-28T04:25:40;35.45;;;19.05;;
79076;SDS011;68477;42.698;23.342;2023-12-28T04:28:06;39.13;;;20.42;;
79076;SDS011;68477;42.698;23.342;2023-12-28T04:30:33;38.38;;;19.13;;
79076;SDS011;68477;42.698;23.342;2023-12-28T04:32:59;37.65;;;21.20;;
79076;SDS011;68477;42.698;23.342;2023-12-28T04:35:26;40.38;;;22.30;;
79076;SDS011;68477;42.698;23.342;2023-12-28T04:37:51;36.25;;;20.83;;
79076;SDS011;68477;42.698;23.342;2023-12-28T04:40:17;40.42;;;20.50;;
79076;SDS011;68477;42.698;23.342;2023-12-28T04:42:42;40.35;;;21.13;;
79076;SDS011;68477;42.698;23.342;2023-12-28T04:45:08;39.40;;;20.17;;
79076;SDS011;68477;42.698;23.342;2023-12-28T04:47:35;41.05;;;19.70;;
79076;SDS011;68477;42.698;23.342;2023-12-28T04:50:01;38.83;;;20.25;;
79076;SDS011;68477;42.698;23.342;2023-12-28T04:52:28;42.40;;;19.63;;
79076;SDS011;68477;42.698;23.342;2023-12-28T04:54:53;43.78;;;21.75;;
79076;SDS011;68477;42.698;23.342;2023-12-28T04:57:19;45.75;;;21.23;;
79076;SDS011;68477;42.698;23.342;2023-12-28T04:59:44;41.80;;;21.85;;
79076;SDS011;68477;42.698;23.342;2023-12-28T05:02:10;41.50;;;21.63;;
79076;SDS011;68477;42.698;23.342;2023-12-28T05:04:38;39.42;;;21.45;;
79076;SDS011;68477;42.698;23.342;2023-12-28T05:07:04;41.35;;;21.15;;
79076;SDS011;68477;42.698;23.342;2023-12-28T05:09:29;39.25;;;20.48;;
79076;SDS011;68477;42.698;23.342;2023-12-28T05:11:55;42.03;;;20.52;;
79076;SDS011;68477;42.698;23.342;2023-12-28T05:14:20;42.17;;;20.95;;
79076;SDS011;68477;42.698;23.342;2023-12-28T05:16:46;41.72;;;20.42;;
79076;SDS011;68477;42.698;23.342;2023-12-28T05:19:11;47.22;;;22.50;;
79076;SDS011;68477;42.698;23.342;2023-12-28T05:21:37;42.33;;;22.02;;
79076;SDS011;68477;42.698;23.342;2023-12-28T05:24:02;48.25;;;23.88;;
79076;SDS011;68477;42.698;23.342;2023-12-28T05:26:28;45.92;;;25.20;;
79076;SDS011;68477;42.698;23.342;2023-12-28T05:28:53;43.53;;;22.33;;
79076;SDS011;68477;42.698;23.342;2023-12-28T05:31:19;45.65;;;23.25;;
79076;SDS011;68477;42.698;23.342;2023-12-28T05:33:44;43.17;;;22.40;;
79076;SDS011;68477;42.698;23.342;2023-12-28T05:36:10;50.08;;;24.27;;
79076;SDS011;68477;42.698;23.342;2023-12-28T05:38:35;48.63;;;25.35;;
79076;SDS011;68477;42.698;23.342;2023-12-28T05:41:01;50.35;;;22.90;;
79076;SDS011;68477;42.698;23.342;2023-12-28T05:43:26;44.58;;;22.45;;
79076;SDS011;68477;42.698;23.342;2023-12-28T05:45:52;46.40;;;23.83;;
79076;SDS011;68477;42.698;23.342;2023-12-28T05:48:17;46.83;;;23.80;;
79076;SDS011;68477;42.698;23.342;2023-12-28T05:50:43;48.92;;;23.83;;
79076;SDS011;68477;42.698;23.342;2023-12-28T05:53:08;39.78;;;20.10;;
79076;SDS011;68477;42.698;23.342;2023-12-28T05:55:39;40.63;;;21.38;;
79076;SDS011;68477;42.698;23.342;2023-12-28T06:00:33;40.67;;;19.92;;
79076;SDS011;68477;42.698;23.342;2023-12-28T06:03:00;44.40;;;22.92;;
79076;SDS011;68477;42.698;23.342;2023-12-28T06:05:27;48.75;;;23.25;;
79076;SDS011;68477;42.698;23.342;2023-12-28T06:07:52;50.70;;;23.98;;
79076;SDS011;68477;42.698;23.342;2023-12-28T06:10:18;43.50;;;24.60;;
79076;SDS011;68477;42.698;23.342;2023-12-28T06:12:43;52.22;;;25.23;;
79076;SDS011;68477;42.698;23.342;2023-12-28T06:15:10;45.42;;;22.55;;
79076;SDS011;68477;42.698;23.342;2023-12-28T06:17:36;46.08;;;22.23;;
79076;SDS011;68477;42.698;23.342;2023-12-28T06:20:01;41.90;;;23.33;;
79076;SDS011;68477;42.698;23.342;2023-12-28T06:22:27;49.25;;;22.85;;
79076;SDS011;68477;42.698;23.342;2023-12-28T06:24:55;58.95;;;26.60;;
79076;SDS011;68477;42.698;23.342;2023-12-28T06:27:22;39.17;;;21.33;;
79076;SDS011;68477;42.698;23.342;2023-12-28T06:29:48;49.75;;;22.83;;
79076;SDS011;68477;42.698;23.342;2023-12-28T06:32:14;49.10;;;24.30;;
79076;SDS011;68477;42.698;23.342;2023-12-28T06:34:40;46.42;;;24.05;;
79076;SDS011;68477;42.698;23.342;2023-12-28T06:37:05;47.22;;;24.40;;
79076;SDS011;68477;42.698;23.342;2023-12-28T06:39:31;44.63;;;24.70;;
79076;SDS011;68477;42.698;23.342;2023-12-28T06:41:56;49.45;;;23.50;;
79076;SDS011;68477;42.698;23.342;2023-12-28T06:44:21;48.42;;;23.90;;
79076;SDS011;68477;42.698;23.342;2023-12-28T06:46:47;48.40;;;24.73;;
79076;SDS011;68477;42.698;23.342;2023-12-28T06:49:13;49.05;;;24.90;;
79076;SDS011;68477;42.698;23.342;2023-12-28T06:51:38;53.20;;;25.52;;
79076;SDS011;68477;42.698;23.342;2023-12-28T06:54:04;53.60;;;26.83;;
79076;SDS011;68477;42.698;23.342;2023-12-28T06:56:29;55.70;;;24.05;;
79076;SDS011;68477;42.698;23.342;2023-12-28T06:58:55;51.17;;;23.83;;
79076;SDS011;68477;42.698;23.342;2023-12-28T07:01:20;51.10;;;25.50;;
79076;SDS011;68477;42.698;23.342;2023-12-28T07:03:46;43.85;;;26.08;;
79076;SDS011;68477;42.698;23.342;2023-12-28T07:06:13;51.35;;;26.88;;
79076;SDS011;68477;42.698;23.342;2023-12-28T07:08:39;51.22;;;26.67;;
79076;SDS011;68477;42.698;23.342;2023-12-28T07:11:04;48.00;;;27.30;;
79076;SDS011;68477;42.698;23.342;2023-12-28T07:13:30;49.35;;;24.50;;
79076;SDS011;68477;42.698;23.342;2023-12-28T07:15:55;46.83;;;25.70;;
79076;SDS011;68477;42.698;23.342;2023-12-28T07:18:22;52.53;;;25.83;;
79076;SDS011;68477;42.698;23.342;2023-12-28T07:20:48;50.13;;;25.98;;
79076;SDS011;68477;42.698;23.342;2023-12-28T07:23:14;46.83;;;25.25;;
79076;SDS011;68477;42.698;23.342;2023-12-28T07:25:39;50.40;;;24.50;;
79076;SDS011;68477;42.698;23.342;2023-12-28T07:28:05;50.28;;;25.35;;
79076;SDS011;68477;42.698;23.342;2023-12-28T07:30:31;42.53;;;23.33;;
79076;SDS011;68477;42.698;23.342;2023-12-28T07:32:56;41.67;;;22.70;;
79076;SDS011;68477;42.698;23.342;2023-12-28T07:35:22;42.38;;;22.90;;
79076;SDS011;68477;42.698;23.342;2023-12-28T07:37:48;45.70;;;25.95;;
79076;SDS011;68477;42.698;23.342;2023-12-28T07:40:14;51.30;;;25.30;;
79076;SDS011;68477;42.698;23.342;2023-12-28T07:42:40;46.08;;;23.00;;
79076;SDS011;68477;42.698;23.342;2023-12-28T07:45:06;57.17;;;30.13;;
79076;SDS011;68477;42.698;23.342;2023-12-28T07:47:31;47.42;;;27.38;;
79076;SDS011;68477;42.698;23.342;2023-12-28T07:49:57;49.90;;;27.95;;
79076;SDS011;68477;42.698;23.342;2023-12-28T07:52:23;44.78;;;25.27;;
79076;SDS011;68477;42.698;23.342;2023-12-28T07:54:48;50.70;;;27.75;;
79076;SDS011;68477;42.698;23.342;2023-12-28T07:57:14;43.75;;;23.73;;
79076;SDS011;68477;42.698;23.342;2023-12-28T07:59:39;46.20;;;25.08;;
79076;SDS011;68477;42.698;23.342;2023-12-28T08:02:04;50.33;;;25.98;;
79076;SDS011;68477;42.698;23.342;2023-12-28T08:04:30;51.83;;;28.60;;
79076;SDS011;68477;42.698;23.342;2023-12-28T08:06:58;49.92;;;25.48;;
79076;SDS011;68477;42.698;23.342;2023-12-28T08:09:23;52.78;;;26.65;;
79076;SDS011;68477;42.698;23.342;2023-12-28T08:11:49;55.95;;;27.00;;
79076;SDS011;68477;42.698;23.342;2023-12-28T08:14:15;53.25;;;25.45;;
79076;SDS011;68477;42.698;23.342;2023-12-28T08:16:40;40.08;;;22.77;;
79076;SDS011;68477;42.698;23.342;2023-12-28T08:19:06;39.78;;;23.20;;
79076;SDS011;68477;42.698;23.342;2023-12-28T08:21:31;51.33;;;24.38;;
79076;SDS011;68477;42.698;23.342;2023-12-28T08:23:57;50.22;;;25.70;;
79076;SDS011;68477;42.698;23.342;2023-12-28T08:26:22;51.22;;;27.50;;
79076;SDS011;68477;42.698;23.342;2023-12-28T08:28:48;44.15;;;23.10;;
79076;SDS011;68477;42.698;23.342;2023-12-28T08:31:13;44.42;;;23.25;;
79076;SDS011;68477;42.698;23.342;2023-12-28T08:33:39;44.58;;;24.38;;
79076;SDS011;68477;42.698;23.342;2023-12-28T08:36:06;48.40;;;25.33;;
79076;SDS011;68477;42.698;23.342;2023-12-28T08:38:32;47.47;;;25.02;;
79076;SDS011;68477;42.698;23.342;2023-12-28T08:40:58;49.92;;;27.40;;
79076;SDS011;68477;42.698;23.342;2023-12-28T08:43:23;51.70;;;26.55;;
79076;SDS011;68477;42.698;23.342;2023-12-28T08:45:49;56.53;;;29.60;;
79076;SDS011;68477;42.698;23.342;2023-12-28T08:48:14;45.53;;;25.13;;
79076;SDS011;68477;42.698;23.342;2023-12-28T08:50:40;55.80;;;26.98;;
79076;SDS011;68477;42.698;23.342;2023-12-28T08:53:05;55.80;;;29.50;;
79076;SDS011;68477;42.698;23.342;2023-12-28T08:55:31;60.45;;;29.48;;
79076;SDS011;68477;42.698;23.342;2023-12-28T08:57:56;51.67;;;30.33;;
79076;SDS011;68477;42.698;23.342;2023-12-28T09:00:22;55.65;;;28.90;;
79076;SDS011;68477;42.698;23.342;2023-12-28T09:02:48;47.58;;;27.17;;
79076;SDS011;68477;42.698;23.342;2023-12-28T09:05:13;49.28;;;25.67;;
79076;SDS011;68477;42.698;23.342;2023-12-28T09:07:39;40.92;;;23.45;;
79076;SDS011;68477;42.698;23.342;2023-12-28T09:10:11;40.80;;;21.35;;
79076;SDS011;68477;42.698;23.342;2023-12-28T09:12:37;44.65;;;23.42;;
79076;SDS011;68477;42.698;23.342;2023-12-28T09:15:04;41.35;;;21.70;;
79076;SDS011;68477;42.698;23.342;2023-12-28T09:17:30;43.58;;;24.55;;
79076;SDS011;68477;42.698;23.342;2023-12-28T09:19:55;41.55;;;22.63;;
79076;SDS011;68477;42.698;23.342;2023-12-28T09:22:23;43.67;;;22.88;;
79076;SDS011;68477;42.698;23.342;2023-12-28T09:24:49;37.70;;;21.55;;
79076;SDS011;68477;42.698;23.342;2023-12-28T09:27:14;36.58;;;20.83;;
79076;SDS011;68477;42.698;23.342;2023-12-28T09:29:39;40.13;;;21.95;;
79076;SDS011;68477;42.698;23.342;2023-12-28T09:32:05;40.85;;;20.75;;
79076;SDS011;68477;42.698;23.342;2023-12-28T09:34:31;36.97;;;21.05;;
79076;SDS011;68477;42.698;23.342;2023-12-28T09:36:57;34.17;;;19.65;;
79076;SDS011;68477;42.698;23.342;2023-12-28T09:39:22;32.70;;;19.15;;
79076;SDS011;68477;42.698;23.342;2023-12-28T09:41:49;35.53;;;21.55;;
79076;SDS011;68477;42.698;23.342;2023-12-28T09:44:20;38.15;;;20.67;;
79076;SDS011;68477;42.698;23.342;2023-12-28T09:46:46;33.33;;;20.17;;
79076;SDS011;68477;42.698;23.342;2023-12-28T09:49:12;35.42;;;20.10;;
79076;SDS011;68477;42.698;23.342;2023-12-28T09:51:38;36.35;;;19.33;;
79076;SDS011;68477;42.698;23.342;2023-12-28T09:54:04;43.08;;;21.67;;
79076;SDS011;68477;42.698;23.342;2023-12-28T09:56:30;40.08;;;19.75;;
79076;SDS011;68477;42.698;23.342;2023-12-28T09:59:00;31.00;;;17.48;;
79076;SDS011;68477;42.698;23.342;2023-12-28T10:01:28;42.13;;;20.77;;
79076;SDS011;68477;42.698;23.342;2023-12-28T10:03:54;38.05;;;20.60;;
79076;SDS011;68477;42.698;23.342;2023-12-28T10:06:19;33.33;;;19.75;;
79076;SDS011;68477;42.698;23.342;2023-12-28T10:08:46;34.92;;;19.05;;
79076;SDS011;68477;42.698;23.342;2023-12-28T10:11:14;43.35;;;21.60;;
79076;SDS011;68477;42.698;23.342;2023-12-28T10:13:41;32.05;;;17.83;;
79076;SDS011;68477;42.698;23.342;2023-12-28T10:16:08;41.08;;;21.00;;
79076;SDS011;68477;42.698;23.342;2023-12-28T10:18:41;45.28;;;20.33;;
79076;SDS011;68477;42.698;23.342;2023-12-28T10:21:10;36.22;;;21.63;;
79076;SDS011;68477;42.698;23.342;2023-12-28T10:23:36;46.22;;;21.25;;
79076;SDS011;68477;42.698;23.342;2023-12-28T10:26:03;45.35;;;21.52;;
79076;SDS011;68477;42.698;23.342;2023-12-28T10:28:32;39.47;;;20.70;;
79076;SDS011;68477;42.698;23.342;2023-12-28T10:30:59;43.63;;;22.25;;
79076;SDS011;68477;42.698;23.342;2023-12-28T10:33:25;40.42;;;20.70;;
79076;SDS011;68477;42.698;23.342;2023-12-28T10:35:50;39.63;;;21.75;;
79076;SDS011;68477;42.698;23.342;2023-12-28T10:38:17;37.92;;;21.48;;
79076;SDS011;68477;42.698;23.342;2023-12-28T10:40:46;36.30;;;21.25;;
79076;SDS011;68477;42.698;23.342;2023-12-28T10:43:15;44.95;;;20.95;;
79076;SDS011;68477;42.698;23.342;2023-12-28T10:45:42;41.00;;;21.98;;
79076;SDS011;68477;42.698;23.342;2023-12-28T10:48:12;50.53;;;23.67;;
79076;SDS011;68477;42.698;23.342;2023-12-28T10:50:49;39.67;;;21.90;;
79076;SDS011;68477;42.698;23.342;2023-12-28T10:53:21;38.70;;;22.73;;
79076;SDS011;68477;42.698;23.342;2023-12-28T10:57:12;40.10;;;22.63;;
79076;SDS011;68477;42.698;23.342;2023-12-28T10:59:18;39.88;;;23.67;;
79076;SDS011;68477;42.698;23.342;2023-12-28T11:01:56;49.78;;;24.33;;
79076;SDS011;68477;42.698;23.342;2023-12-28T11:04:27;42.78;;;24.23;;
79076;SDS011;68477;42.698;23.342;2023-12-28T11:07:02;36.55;;;21.42;;
79076;SDS011;68477;42.698;23.342;2023-12-28T11:09:30;36.70;;;21.40;;
79076;SDS011;68477;42.698;23.342;2023-12-28T11:11:56;41.25;;;22.92;;
79076;SDS011;68477;42.698;23.342;2023-12-28T11:14:26;44.15;;;24.70;;
79076;SDS011;68477;42.698;23.342;2023-12-28T11:16:53;38.17;;;21.10;;
79076;SDS011;68477;42.698;23.342;2023-12-28T11:19:19;37.70;;;21.83;;
79076;SDS011;68477;42.698;23.342;2023-12-28T11:21:48;39.10;;;21.70;;
79076;SDS011;68477;42.698;23.342;2023-12-28T11:24:15;39.35;;;22.10;;
79076;SDS011;68477;42.698;23.342;2023-12-28T11:26:42;43.28;;;18.95;;
79076;SDS011;68477;42.698;23.342;2023-12-28T11:29:07;34.80;;;20.40;;
79076;SDS011;68477;42.698;23.342;2023-12-28T11:31:33;37.90;;;19.48;;
79076;SDS011;68477;42.698;23.342;2023-12-28T11:34:00;35.03;;;20.73;;
79076;SDS011;68477;42.698;23.342;2023-12-28T11:36:32;46.03;;;23.48;;
79076;SDS011;68477;42.698;23.342;2023-12-28T11:39:03;42.22;;;19.85;;
79076;SDS011;68477;42.698;23.342;2023-12-28T11:41:32;31.45;;;19.38;;
79076;SDS011;68477;42.698;23.342;2023-12-28T11:44:04;34.25;;;19.23;;
79076;SDS011;68477;42.698;23.342;2023-12-28T11:46:31;35.55;;;20.05;;
79076;SDS011;68477;42.698;23.342;2023-12-28T11:49:06;39.58;;;19.65;;
79076;SDS011;68477;42.698;23.342;2023-12-28T11:51:34;33.80;;;20.15;;
79076;SDS011;68477;42.698;23.342;2023-12-28T11:54:02;35.42;;;19.42;;
79076;SDS011;68477;42.698;23.342;2023-12-28T11:56:29;33.97;;;19.63;;
79076;SDS011;68477;42.698;23.342;2023-12-28T11:58:54;29.95;;;17.92;;
79076;SDS011;68477;42.698;23.342;2023-12-28T12:01:20;31.23;;;18.00;;
79076;SDS011;68477;42.698;23.342;2023-12-28T12:03:45;32.38;;;17.60;;
79076;SDS011;68477;42.698;23.342;2023-12-28T12:06:11;31.77;;;17.98;;
79076;SDS011;68477;42.698;23.342;2023-12-28T12:08:36;33.95;;;18.15;;
79076;SDS011;68477;42.698;23.342;2023-12-28T12:11:02;30.10;;;18.75;;
79076;SDS011;68477;42.698;23.342;2023-12-28T12:13:30;30.13;;;17.83;;
79076;SDS011;68477;42.698;23.342;2023-12-28T12:15:56;39.40;;;18.00;;
79076;SDS011;68477;42.698;23.342;2023-12-28T12:18:22;30.60;;;18.38;;
79076;SDS011;68477;42.698;23.342;2023-12-28T12:20:48;34.25;;;18.52;;
79076;SDS011;68477;42.698;23.342;2023-12-28T12:23:15;33.13;;;18.65;;
79076;SDS011;68477;42.698;23.342;2023-12-28T12:25:41;29.13;;;18.50;;
79076;SDS011;68477;42.698;23.342;2023-12-28T12:28:07;25.73;;;15.95;;
79076;SDS011;68477;42.698;23.342;2023-12-28T12:30:33;30.17;;;14.70;;
79076;SDS011;68477;42.698;23.342;2023-12-28T12:32:59;25.60;;;15.15;;
79076;SDS011;68477;42.698;23.342;2023-12-28T12:35:25;36.55;;;15.43;;
79076;SDS011;68477;42.698;23.342;2023-12-28T12:37:50;29.15;;;16.65;;
79076;SDS011;68477;42.698;23.342;2023-12-28T12:40:16;30.80;;;16.33;;
79076;SDS011;68477;42.698;23.342;2023-12-28T12:45:20;31.95;;;18.17;;
79076;SDS011;68477;42.698;23.342;2023-12-28T12:47:47;33.20;;;18.95;;
79076;SDS011;68477;42.698;23.342;2023-12-28T12:50:13;30.35;;;17.85;;
79076;SDS011;68477;42.698;23.342;2023-12-28T12:52:41;27.95;;;17.17;;
79076;SDS011;68477;42.698;23.342;2023-12-28T12:55:10;28.63;;;15.13;;
79076;SDS011;68477;42.698;23.342;2023-12-28T12:57:42;25.13;;;16.13;;
79076;SDS011;68477;42.698;23.342;2023-12-28T13:00:09;33.00;;;16.25;;
79076;SDS011;68477;42.698;23.342;2023-12-28T13:02:35;28.35;;;17.60;;
79076;SDS011;68477;42.698;23.342;2023-12-28T13:05:04;29.00;;;16.25;;
79076;SDS011;68477;42.698;23.342;2023-12-28T13:07:30;37.05;;;17.25;;
79076;SDS011;68477;42.698;23.342;2023-12-28T13:09:57;31.17;;;16.17;;
79076;SDS011;68477;42.698;23.342;2023-12-28T13:12:22;32.10;;;16.33;;
79076;SDS011;68477;42.698;23.342;2023-12-28T13:14:50;33.72;;;18.35;;
79076;SDS011;68477;42.698;23.342;2023-12-28T13:17:15;25.52;;;15.05;;
79076;SDS011;68477;42.698;23.342;2023-12-28T13:19:41;27.75;;;15.43;;
79076;SDS011;68477;42.698;23.342;2023-12-28T13:22:07;30.90;;;17.58;;
79076;SDS011;68477;42.698;23.342;2023-12-28T13:24:33;25.15;;;15.43;;
79076;SDS011;68477;42.698;23.342;2023-12-28T13:26:58;25.08;;;14.90;;
79076;SDS011;68477;42.698;23.342;2023-12-28T13:29:24;30.35;;;16.60;;
79076;SDS011;68477;42.698;23.342;2023-12-28T13:31:49;24.67;;;16.10;;
79076;SDS011;68477;42.698;23.342;2023-12-28T13:34:18;30.50;;;18.02;;
79076;SDS011;68477;42.698;23.342;2023-12-28T13:36:47;27.13;;;15.73;;
79076;SDS011;68477;42.698;23.342;2023-12-28T13:39:13;26.85;;;16.40;;
79076;SDS011;68477;42.698;23.342;2023-12-28T13:41:42;27.60;;;15.95;;
79076;SDS011;68477;42.698;23.342;2023-12-28T13:44:08;31.23;;;16.98;;
79076;SDS011;68477;42.698;23.342;2023-12-28T13:46:39;31.50;;;17.65;;
79076;SDS011;68477;42.698;23.342;2023-12-28T13:49:04;24.88;;;15.77;;
79076;SDS011;68477;42.698;23.342;2023-12-28T13:51:31;27.08;;;17.50;;
79076;SDS011;68477;42.698;23.342;2023-12-28T13:53:57;25.77;;;16.60;;
79076;SDS011;68477;42.698;23.342;2023-12-28T13:56:23;29.42;;;15.27;;
79076;SDS011;68477;42.698;23.342;2023-12-28T13:58:49;29.30;;;16.42;;
79076;SDS011;68477;42.698;23.342;2023-12-28T14:01:14;26.13;;;16.98;;
79076;SDS011;68477;42.698;23.342;2023-12-28T14:03:40;30.38;;;17.48;;
79076;SDS011;68477;42.698;23.342;2023-12-28T14:06:06;35.47;;;18.02;;
79076;SDS011;68477;42.698;23.342;2023-12-28T14:08:32;41.03;;;17.98;;
79076;SDS011;68477;42.698;23.342;2023-12-28T14:10:57;35.88;;;18.17;;
79076;SDS011;68477;42.698;23.342;2023-12-28T14:13:23;43.22;;;18.55;;